KAPC/APC METAR and TAF weather

Enter ICAO airport designator
Station Type Date Time Source
KAPC METAR 2021/05/10 00:54 UTC NOAA

KAPC 100054Z 25015KT 10SM CLR 27/07 A2981 RMK AO2 SLP087 T02670067


Station Type Date Time Source
KAPC Decoded METAR 2021/05/10 00:54 UTC NOAA

NAPA COUNTY AIRPORT, CA, United States (KAPC) 38-12N 122-17W 13M
May 09, 2021 - 08:54 PM EDT / 2021.05.10 0054 UTC
Wind: from the WSW (250 degrees) at 17 MPH (15 KT):0
Visibility: 10 mile(s):0
Sky conditions: clear
Temperature: 80.1 F (26.7 C)
Dew Point: 44.1 F (6.7 C)
Relative Humidity: 28%
Pressure (altimeter): 29.81 in. Hg (1009 hPa)
ob: KAPC 100054Z 25015KT 10SM CLR 27/07 A2981 RMK AO2 SLP087 T02670067
cycle: 1

Station Type Date Time Source
KAPC TAF 2021/05/10 00:24 UTC NOAA

TAF
AMD KAPC 100021Z 1000/1024 22015KT P6SM SKC
FM100400 19005KT P6SM SKC WS015/01025KT
FM100700 VRB04KT P6SM SKC WS020/01030KT
FM101800 01010KT P6SM SKC

Example: see airport list